sensor_id;sensor_type;location;lat;lon;timestamp;temperature;humidity
42965;DHT22;28604;51.204;22.552;2023-02-01T00:00:22;2.10;93.00
42965;DHT22;28604;51.204;22.552;2023-02-01T00:03:08;2.00;93.00
42965;DHT22;28604;51.204;22.552;2023-02-01T00:05:34;2.00;93.10
42965;DHT22;28604;51.204;22.552;2023-02-01T00:08:00;2.00;93.20
42965;DHT22;28604;51.204;22.552;2023-02-01T00:10:25;2.00;92.90
42965;DHT22;28604;51.204;22.552;2023-02-01T00:12:52;2.00;93.30
42965;DHT22;28604;51.204;22.552;2023-02-01T00:15:17;2.00;93.50
42965;DHT22;28604;51.204;22.552;2023-02-01T00:17:43;2.00;93.30
42965;DHT22;28604;51.204;22.552;2023-02-01T00:20:10;2.00;93.40
42965;DHT22;28604;51.204;22.552;2023-02-01T00:22:36;2.10;93.20
42965;DHT22;28604;51.204;22.552;2023-02-01T00:25:02;2.10;93.50
42965;DHT22;28604;51.204;22.552;2023-02-01T00:27:28;2.00;93.60
42965;DHT22;28604;51.204;22.552;2023-02-01T00:29:55;2.10;93.70
42965;DHT22;28604;51.204;22.552;2023-02-01T00:32:21;2.00;93.40
42965;DHT22;28604;51.204;22.552;2023-02-01T00:34:47;1.90;93.60
42965;DHT22;28604;51.204;22.552;2023-02-01T00:37:13;2.00;93.60
42965;DHT22;28604;51.204;22.552;2023-02-01T00:39:39;2.00;93.50
42965;DHT22;28604;51.204;22.552;2023-02-01T00:42:05;2.00;93.60
42965;DHT22;28604;51.204;22.552;2023-02-01T00:44:31;2.00;93.60
42965;DHT22;28604;51.204;22.552;2023-02-01T00:47:00;2.00;93.60
42965;DHT22;28604;51.204;22.552;2023-02-01T00:49:26;1.90;93.80
42965;DHT22;28604;51.204;22.552;2023-02-01T00:51:52;1.90;94.10
42965;DHT22;28604;51.204;22.552;2023-02-01T00:54:18;1.90;94.00
42965;DHT22;28604;51.204;22.552;2023-02-01T00:56:44;1.90;93.90
42965;DHT22;28604;51.204;22.552;2023-02-01T00:59:11;1.90;94.30
42965;DHT22;28604;51.204;22.552;2023-02-01T01:01:38;1.90;94.20
42965;DHT22;28604;51.204;22.552;2023-02-01T01:04:04;1.90;94.20
42965;DHT22;28604;51.204;22.552;2023-02-01T01:06:32;1.90;94.00
42965;DHT22;28604;51.204;22.552;2023-02-01T01:09:00;1.90;94.20
42965;DHT22;28604;51.204;22.552;2023-02-01T01:11:30;1.90;94.30
42965;DHT22;28604;51.204;22.552;2023-02-01T01:13:57;1.90;94.40
42965;DHT22;28604;51.204;22.552;2023-02-01T01:16:26;1.90;94.40
42965;DHT22;28604;51.204;22.552;2023-02-01T01:18:53;1.90;94.40
42965;DHT22;28604;51.204;22.552;2023-02-01T01:21:20;1.80;94.50
42965;DHT22;28604;51.204;22.552;2023-02-01T01:23:46;1.80;94.60
42965;DHT22;28604;51.204;22.552;2023-02-01T01:26:20;1.80;94.60
42965;DHT22;28604;51.204;22.552;2023-02-01T01:28:46;1.70;94.80
42965;DHT22;28604;51.204;22.552;2023-02-01T01:31:14;1.80;94.80
42965;DHT22;28604;51.204;22.552;2023-02-01T01:33:40;1.70;94.90
42965;DHT22;28604;51.204;22.552;2023-02-01T01:36:08;1.70;94.80
42965;DHT22;28604;51.204;22.552;2023-02-01T01:38:39;1.80;94.80
42965;DHT22;28604;51.204;22.552;2023-02-01T01:41:06;1.70;94.80
42965;DHT22;28604;51.204;22.552;2023-02-01T01:43:57;1.70;94.90
42965;DHT22;28604;51.204;22.552;2023-02-01T01:46:30;1.70;94.70
42965;DHT22;28604;51.204;22.552;2023-02-01T01:49:12;1.70;94.80
42965;DHT22;28604;51.204;22.552;2023-02-01T01:51:58;1.70;94.80
42965;DHT22;28604;51.204;22.552;2023-02-01T01:54:34;1.70;94.90
42965;DHT22;28604;51.204;22.552;2023-02-01T01:57:17;1.60;95.00
42965;DHT22;28604;51.204;22.552;2023-02-01T01:59:47;1.70;95.00
42965;DHT22;28604;51.204;22.552;2023-02-01T02:02:16;1.70;95.00
42965;DHT22;28604;51.204;22.552;2023-02-01T02:04:42;1.80;94.90
42965;DHT22;28604;51.204;22.552;2023-02-01T02:07:13;1.80;94.90
42965;DHT22;28604;51.204;22.552;2023-02-01T02:09:40;1.80;95.10
42965;DHT22;28604;51.204;22.552;2023-02-01T02:12:06;1.70;95.10
42965;DHT22;28604;51.204;22.552;2023-02-01T02:14:33;1.70;95.20
42965;DHT22;28604;51.204;22.552;2023-02-01T02:26:00;1.80;95.30
42965;DHT22;28604;51.204;22.552;2023-02-01T02:39:24;2.00;95.10
42965;DHT22;28604;51.204;22.552;2023-02-01T02:42:25;2.00;95.00
42965;DHT22;28604;51.204;22.552;2023-02-01T02:45:23;2.00;95.10
42965;DHT22;28604;51.204;22.552;2023-02-01T02:48:20;2.00;95.10
42965;DHT22;28604;51.204;22.552;2023-02-01T02:50:58;2.10;95.00
42965;DHT22;28604;51.204;22.552;2023-02-01T02:56:59;2.10;94.90
42965;DHT22;28604;51.204;22.552;2023-02-01T02:59:45;2.10;94.80
42965;DHT22;28604;51.204;22.552;2023-02-01T03:02:34;2.10;94.90
42965;DHT22;28604;51.204;22.552;2023-02-01T03:05:18;2.20;94.70
42965;DHT22;28604;51.204;22.552;2023-02-01T03:07:54;2.20;94.70
42965;DHT22;28604;51.204;22.552;2023-02-01T03:10:40;2.30;94.60
42965;DHT22;28604;51.204;22.552;2023-02-01T03:13:12;2.30;94.50
42965;DHT22;28604;51.204;22.552;2023-02-01T03:15:57;2.30;94.60
42965;DHT22;28604;51.204;22.552;2023-02-01T03:21:10;2.40;94.50
42965;DHT22;28604;51.204;22.552;2023-02-01T03:23:38;2.40;94.60
42965;DHT22;28604;51.204;22.552;2023-02-01T03:26:07;2.40;94.50
42965;DHT22;28604;51.204;22.552;2023-02-01T03:28:37;2.40;94.60
42965;DHT22;28604;51.204;22.552;2023-02-01T03:31:05;2.40;94.60
42965;DHT22;28604;51.204;22.552;2023-02-01T03:33:31;2.40;94.30
42965;DHT22;28604;51.204;22.552;2023-02-01T03:38:55;2.40;94.30
42965;DHT22;28604;51.204;22.552;2023-02-01T03:44:17;2.30;94.60
42965;DHT22;28604;51.204;22.552;2023-02-01T03:47:10;2.30;94.60
42965;DHT22;28604;51.204;22.552;2023-02-01T03:49:49;2.30;94.60
42965;DHT22;28604;51.204;22.552;2023-02-01T03:52:21;2.30;94.50
42965;DHT22;28604;51.204;22.552;2023-02-01T03:54:49;2.30;94.60
42965;DHT22;28604;51.204;22.552;2023-02-01T03:57:21;2.30;94.50
42965;DHT22;28604;51.204;22.552;2023-02-01T03:59:48;2.20;94.80
42965;DHT22;28604;51.204;22.552;2023-02-01T04:02:15;2.20;94.70
42965;DHT22;28604;51.204;22.552;2023-02-01T04:04:43;2.30;94.60
42965;DHT22;28604;51.204;22.552;2023-02-01T04:07:10;2.20;94.60
42965;DHT22;28604;51.204;22.552;2023-02-01T04:09:36;2.20;94.70
42965;DHT22;28604;51.204;22.552;2023-02-01T04:12:02;2.20;94.60
42965;DHT22;28604;51.204;22.552;2023-02-01T04:14:28;2.20;94.60
42965;DHT22;28604;51.204;22.552;2023-02-01T04:16:54;2.20;94.50
42965;DHT22;28604;51.204;22.552;2023-02-01T04:19:20;2.20;94.30
42965;DHT22;28604;51.204;22.552;2023-02-01T04:21:46;2.20;94.30
42965;DHT22;28604;51.204;22.552;2023-02-01T04:24:12;2.30;94.40
42965;DHT22;28604;51.204;22.552;2023-02-01T04:26:38;2.30;94.30
42965;DHT22;28604;51.204;22.552;2023-02-01T04:29:04;2.30;94.40
42965;DHT22;28604;51.204;22.552;2023-02-01T04:31:30;2.30;94.40
42965;DHT22;28604;51.204;22.552;2023-02-01T04:33:56;2.30;94.40
42965;DHT22;28604;51.204;22.552;2023-02-01T04:36:24;2.30;94.20
42965;DHT22;28604;51.204;22.552;2023-02-01T04:38:51;2.40;94.20
42965;DHT22;28604;51.204;22.552;2023-02-01T04:41:17;2.30;94.10
42965;DHT22;28604;51.204;22.552;2023-02-01T04:43:48;2.40;94.20
42965;DHT22;28604;51.204;22.552;2023-02-01T04:46:14;2.30;94.40
42965;DHT22;28604;51.204;22.552;2023-02-01T04:48:41;2.30;94.30
42965;DHT22;28604;51.204;22.552;2023-02-01T04:51:07;2.30;94.40
42965;DHT22;28604;51.204;22.552;2023-02-01T04:53:33;2.30;94.20
42965;DHT22;28604;51.204;22.552;2023-02-01T04:55:59;2.40;94.30
42965;DHT22;28604;51.204;22.552;2023-02-01T04:58:25;2.30;94.10
42965;DHT22;28604;51.204;22.552;2023-02-01T05:00:51;2.30;94.10
42965;DHT22;28604;51.204;22.552;2023-02-01T05:03:17;2.30;94.30
42965;DHT22;28604;51.204;22.552;2023-02-01T05:05:43;2.30;94.20
42965;DHT22;28604;51.204;22.552;2023-02-01T05:08:09;2.30;94.20
42965;DHT22;28604;51.204;22.552;2023-02-01T05:10:35;2.30;94.10
42965;DHT22;28604;51.204;22.552;2023-02-01T05:13:01;2.30;94.20
42965;DHT22;28604;51.204;22.552;2023-02-01T05:15:46;2.30;94.40
42965;DHT22;28604;51.204;22.552;2023-02-01T05:18:12;2.30;94.20
42965;DHT22;28604;51.204;22.552;2023-02-01T05:20:38;2.30;94.20
42965;DHT22;28604;51.204;22.552;2023-02-01T05:23:04;2.40;94.10
42965;DHT22;28604;51.204;22.552;2023-02-01T05:25:31;2.40;94.10
42965;DHT22;28604;51.204;22.552;2023-02-01T05:27:57;2.30;94.20
42965;DHT22;28604;51.204;22.552;2023-02-01T05:30:23;2.30;94.30
42965;DHT22;28604;51.204;22.552;2023-02-01T05:32:53;2.30;94.20
42965;DHT22;28604;51.204;22.552;2023-02-01T05:35:19;2.30;94.20
42965;DHT22;28604;51.204;22.552;2023-02-01T05:37:45;2.30;94.00
42965;DHT22;28604;51.204;22.552;2023-02-01T05:40:11;2.30;94.20
42965;DHT22;28604;51.204;22.552;2023-02-01T05:42:38;2.30;94.30
42965;DHT22;28604;51.204;22.552;2023-02-01T05:45:04;2.20;94.30
42965;DHT22;28604;51.204;22.552;2023-02-01T05:47:31;2.30;94.30
42965;DHT22;28604;51.204;22.552;2023-02-01T05:49:57;2.30;94.00
42965;DHT22;28604;51.204;22.552;2023-02-01T05:52:23;2.30;94.10
42965;DHT22;28604;51.204;22.552;2023-02-01T05:54:49;2.30;94.20
42965;DHT22;28604;51.204;22.552;2023-02-01T05:57:15;2.30;94.10
42965;DHT22;28604;51.204;22.552;2023-02-01T05:59:44;2.30;93.90
42965;DHT22;28604;51.204;22.552;2023-02-01T06:02:12;2.30;94.20
42965;DHT22;28604;51.204;22.552;2023-02-01T06:04:38;2.30;94.10
42965;DHT22;28604;51.204;22.552;2023-02-01T06:07:06;2.30;94.10
42965;DHT22;28604;51.204;22.552;2023-02-01T06:09:34;2.20;94.20
42965;DHT22;28604;51.204;22.552;2023-02-01T06:12:00;2.30;94.30
42965;DHT22;28604;51.204;22.552;2023-02-01T06:14:27;2.30;94.10
42965;DHT22;28604;51.204;22.552;2023-02-01T06:16:54;2.20;94.10
42965;DHT22;28604;51.204;22.552;2023-02-01T06:19:21;2.30;94.10
42965;DHT22;28604;51.204;22.552;2023-02-01T06:21:47;2.30;94.10
42965;DHT22;28604;51.204;22.552;2023-02-01T06:24:13;2.30;94.30
42965;DHT22;28604;51.204;22.552;2023-02-01T06:26:39;2.30;93.90
42965;DHT22;28604;51.204;22.552;2023-02-01T06:29:06;2.30;94.00
42965;DHT22;28604;51.204;22.552;2023-02-01T06:31:33;2.30;93.90
42965;DHT22;28604;51.204;22.552;2023-02-01T06:33:59;2.30;93.90
42965;DHT22;28604;51.204;22.552;2023-02-01T06:36:25;2.40;93.90
42965;DHT22;28604;51.204;22.552;2023-02-01T06:38:51;2.30;93.90
42965;DHT22;28604;51.204;22.552;2023-02-01T06:41:17;2.40;93.70
42965;DHT22;28604;51.204;22.552;2023-02-01T06:43:43;2.40;93.70
42965;DHT22;28604;51.204;22.552;2023-02-01T06:46:12;2.40;93.90
42965;DHT22;28604;51.204;22.552;2023-02-01T06:48:38;2.40;93.80
42965;DHT22;28604;51.204;22.552;2023-02-01T06:51:04;2.40;93.80
42965;DHT22;28604;51.204;22.552;2023-02-01T06:53:31;2.50;93.60
42965;DHT22;28604;51.204;22.552;2023-02-01T06:56:02;2.50;93.70
42965;DHT22;28604;51.204;22.552;2023-02-01T06:58:32;2.50;93.50
42965;DHT22;28604;51.204;22.552;2023-02-01T07:01:04;2.60;93.50
42965;DHT22;28604;51.204;22.552;2023-02-01T07:03:30;2.50;93.40
42965;DHT22;28604;51.204;22.552;2023-02-01T07:05:57;2.50;93.50
42965;DHT22;28604;51.204;22.552;2023-02-01T07:08:26;2.50;93.60
42965;DHT22;28604;51.204;22.552;2023-02-01T07:10:52;2.50;93.50
42965;DHT22;28604;51.204;22.552;2023-02-01T07:13:18;2.60;93.50
42965;DHT22;28604;51.204;22.552;2023-02-01T07:15:44;2.60;93.50
42965;DHT22;28604;51.204;22.552;2023-02-01T07:18:14;2.60;93.50
42965;DHT22;28604;51.204;22.552;2023-02-01T07:20:40;2.60;93.30
42965;DHT22;28604;51.204;22.552;2023-02-01T07:23:09;2.70;93.40
42965;DHT22;28604;51.204;22.552;2023-02-01T07:25:36;2.70;93.20
42965;DHT22;28604;51.204;22.552;2023-02-01T07:28:02;2.80;93.20
42965;DHT22;28604;51.204;22.552;2023-02-01T07:30:28;2.80;93.10
42965;DHT22;28604;51.204;22.552;2023-02-01T07:32:54;2.80;93.10
42965;DHT22;28604;51.204;22.552;2023-02-01T07:35:20;2.70;92.90
42965;DHT22;28604;51.204;22.552;2023-02-01T07:37:46;2.70;93.20
42965;DHT22;28604;51.204;22.552;2023-02-01T07:40:12;2.80;93.00
42965;DHT22;28604;51.204;22.552;2023-02-01T07:42:38;2.80;93.10
42965;DHT22;28604;51.204;22.552;2023-02-01T07:45:04;2.80;93.00
42965;DHT22;28604;51.204;22.552;2023-02-01T07:47:31;2.80;93.00
42965;DHT22;28604;51.204;22.552;2023-02-01T07:49:57;2.90;92.90
42965;DHT22;28604;51.204;22.552;2023-02-01T07:52:23;2.90;92.80
42965;DHT22;28604;51.204;22.552;2023-02-01T07:54:49;2.80;92.90
42965;DHT22;28604;51.204;22.552;2023-02-01T07:57:15;3.00;92.80
42965;DHT22;28604;51.204;22.552;2023-02-01T07:59:41;3.00;92.80
42965;DHT22;28604;51.204;22.552;2023-02-01T08:02:27;2.90;92.90
42965;DHT22;28604;51.204;22.552;2023-02-01T08:04:53;3.00;92.80
42965;DHT22;28604;51.204;22.552;2023-02-01T08:07:18;3.10;92.60
42965;DHT22;28604;51.204;22.552;2023-02-01T08:09:45;3.10;92.60
42965;DHT22;28604;51.204;22.552;2023-02-01T08:12:10;3.20;92.40
42965;DHT22;28604;51.204;22.552;2023-02-01T08:14:37;3.10;92.30
42965;DHT22;28604;51.204;22.552;2023-02-01T08:17:02;3.20;92.30
42965;DHT22;28604;51.204;22.552;2023-02-01T08:19:29;3.10;92.50
42965;DHT22;28604;51.204;22.552;2023-02-01T08:21:55;3.10;92.40
42965;DHT22;28604;51.204;22.552;2023-02-01T08:24:21;3.20;92.20
42965;DHT22;28604;51.204;22.552;2023-02-01T08:26:47;3.20;92.20
42965;DHT22;28604;51.204;22.552;2023-02-01T08:29:13;3.30;92.30
42965;DHT22;28604;51.204;22.552;2023-02-01T08:31:39;3.40;92.10
42965;DHT22;28604;51.204;22.552;2023-02-01T08:34:09;3.50;92.00
42965;DHT22;28604;51.204;22.552;2023-02-01T08:36:37;3.50;92.30
42965;DHT22;28604;51.204;22.552;2023-02-01T08:39:04;3.70;92.20
42965;DHT22;28604;51.204;22.552;2023-02-01T08:41:34;3.80;91.30
42965;DHT22;28604;51.204;22.552;2023-02-01T08:44:00;3.80;91.70
42965;DHT22;28604;51.204;22.552;2023-02-01T08:46:27;3.90;91.40
42965;DHT22;28604;51.204;22.552;2023-02-01T08:48:53;3.90;91.00
42965;DHT22;28604;51.204;22.552;2023-02-01T08:51:21;3.90;91.10
42965;DHT22;28604;51.204;22.552;2023-02-01T08:53:48;3.80;91.00
42965;DHT22;28604;51.204;22.552;2023-02-01T08:56:16;3.80;91.30
42965;DHT22;28604;51.204;22.552;2023-02-01T08:58:42;3.80;91.20
42965;DHT22;28604;51.204;22.552;2023-02-01T09:01:15;3.80;91.20
42965;DHT22;28604;51.204;22.552;2023-02-01T09:03:42;3.90;91.10
42965;DHT22;28604;51.204;22.552;2023-02-01T09:06:11;3.80;91.20
42965;DHT22;28604;51.204;22.552;2023-02-01T09:08:38;3.80;90.90
42965;DHT22;28604;51.204;22.552;2023-02-01T09:11:07;3.80;91.00
42965;DHT22;28604;51.204;22.552;2023-02-01T09:13:34;3.80;91.20
42965;DHT22;28604;51.204;22.552;2023-02-01T09:16:01;3.90;90.70
42965;DHT22;28604;51.204;22.552;2023-02-01T09:18:27;3.90;90.90
42965;DHT22;28604;51.204;22.552;2023-02-01T09:20:53;3.90;91.00
42965;DHT22;28604;51.204;22.552;2023-02-01T09:23:19;3.80;90.80
42965;DHT22;28604;51.204;22.552;2023-02-01T09:25:46;3.80;91.10
42965;DHT22;28604;51.204;22.552;2023-02-01T09:28:13;3.90;91.20
42965;DHT22;28604;51.204;22.552;2023-02-01T09:30:38;3.90;91.00
42965;DHT22;28604;51.204;22.552;2023-02-01T09:33:05;3.90;90.80
42965;DHT22;28604;51.204;22.552;2023-02-01T09:35:30;3.90;91.10
42965;DHT22;28604;51.204;22.552;2023-02-01T09:37:57;3.80;91.40
42965;DHT22;28604;51.204;22.552;2023-02-01T09:40:23;3.90;91.10
42965;DHT22;28604;51.204;22.552;2023-02-01T09:45:49;3.90;91.20
42965;DHT22;28604;51.204;22.552;2023-02-01T09:48:20;3.80;91.20
42965;DHT22;28604;51.204;22.552;2023-02-01T09:50:55;3.90;91.00
42965;DHT22;28604;51.204;22.552;2023-02-01T09:56:00;4.00;90.80
42965;DHT22;28604;51.204;22.552;2023-02-01T10:00:59;4.10;90.60
42965;DHT22;28604;51.204;22.552;2023-02-01T10:03:29;4.20;90.50
42965;DHT22;28604;51.204;22.552;2023-02-01T10:11:09;4.20;90.60
42965;DHT22;28604;51.204;22.552;2023-02-01T10:14:35;4.20;91.00
42965;DHT22;28604;51.204;22.552;2023-02-01T10:16:37;4.20;90.80
42965;DHT22;28604;51.204;22.552;2023-02-01T10:19:55;4.20;91.10
42965;DHT22;28604;51.204;22.552;2023-02-01T10:27:44;4.00;92.20
42965;DHT22;28604;51.204;22.552;2023-02-01T10:30:20;4.00;92.60
42965;DHT22;28604;51.204;22.552;2023-02-01T10:32:49;4.00;92.40
42965;DHT22;28604;51.204;22.552;2023-02-01T10:35:24;4.00;92.50
42965;DHT22;28604;51.204;22.552;2023-02-01T10:37:52;3.90;92.70
42965;DHT22;28604;51.204;22.552;2023-02-01T10:40:26;3.90;92.50
42965;DHT22;28604;51.204;22.552;2023-02-01T10:43:01;3.80;92.70
42965;DHT22;28604;51.204;22.552;2023-02-01T10:45:29;3.80;93.10
42965;DHT22;28604;51.204;22.552;2023-02-01T10:47:57;3.90;92.90
42965;DHT22;28604;51.204;22.552;2023-02-01T10:53:21;3.90;92.70
42965;DHT22;28604;51.204;22.552;2023-02-01T10:55:52;3.90;92.70
42965;DHT22;28604;51.204;22.552;2023-02-01T10:58:31;3.90;92.50
42965;DHT22;28604;51.204;22.552;2023-02-01T11:01:04;3.90;92.60
42965;DHT22;28604;51.204;22.552;2023-02-01T11:03:36;3.90;92.70
42965;DHT22;28604;51.204;22.552;2023-02-01T11:06:19;4.00;92.70
42965;DHT22;28604;51.204;22.552;2023-02-01T11:09:20;4.10;92.40
42965;DHT22;28604;51.204;22.552;2023-02-01T11:14:26;4.00;92.00
42965;DHT22;28604;51.204;22.552;2023-02-01T11:17:01;4.10;91.90
42965;DHT22;28604;51.204;22.552;2023-02-01T11:19:28;4.20;91.80
42965;DHT22;28604;51.204;22.552;2023-02-01T11:21:57;4.20;91.80
42965;DHT22;28604;51.204;22.552;2023-02-01T11:24:32;4.30;91.80
42965;DHT22;28604;51.204;22.552;2023-02-01T11:27:02;4.40;91.80
42965;DHT22;28604;51.204;22.552;2023-02-01T11:29:35;4.40;91.20
42965;DHT22;28604;51.204;22.552;2023-02-01T11:32:03;4.40;91.70
42965;DHT22;28604;51.204;22.552;2023-02-01T11:34:39;4.60;91.10
42965;DHT22;28604;51.204;22.552;2023-02-01T11:37:18;4.60;91.30
42965;DHT22;28604;51.204;22.552;2023-02-01T11:39:57;4.60;91.30
42965;DHT22;28604;51.204;22.552;2023-02-01T11:42:24;4.80;90.90
42965;DHT22;28604;51.204;22.552;2023-02-01T11:44:50;4.80;91.00
42965;DHT22;28604;51.204;22.552;2023-02-01T11:47:35;4.70;90.50
42965;DHT22;28604;51.204;22.552;2023-02-01T11:50:14;4.70;90.70
42965;DHT22;28604;51.204;22.552;2023-02-01T11:56:25;4.80;90.70
42965;DHT22;28604;51.204;22.552;2023-02-01T11:58:57;4.80;90.30
42965;DHT22;28604;51.204;22.552;2023-02-01T12:06:51;4.80;90.10
42965;DHT22;28604;51.204;22.552;2023-02-01T12:09:44;4.70;90.30
42965;DHT22;28604;51.204;22.552;2023-02-01T12:21:04;4.50;90.90
42965;DHT22;28604;51.204;22.552;2023-02-01T12:23:52;4.60;90.40
42965;DHT22;28604;51.204;22.552;2023-02-01T12:26:44;4.50;90.40
42965;DHT22;28604;51.204;22.552;2023-02-01T12:32:16;4.40;90.90
42965;DHT22;28604;51.204;22.552;2023-02-01T12:43:12;4.20;91.20
42965;DHT22;28604;51.204;22.552;2023-02-01T12:45:58;4.20;91.10
42965;DHT22;28604;51.204;22.552;2023-02-01T12:49:01;4.30;91.00
42965;DHT22;28604;51.204;22.552;2023-02-01T12:51:36;4.30;90.80
42965;DHT22;28604;51.204;22.552;2023-02-01T12:56:30;4.40;90.30
42965;DHT22;28604;51.204;22.552;2023-02-01T12:59:00;4.40;90.20
42965;DHT22;28604;51.204;22.552;2023-02-01T13:01:40;4.40;90.30
42965;DHT22;28604;51.204;22.552;2023-02-01T13:04:20;4.40;90.30
42965;DHT22;28604;51.204;22.552;2023-02-01T13:09:26;4.40;90.10
42965;DHT22;28604;51.204;22.552;2023-02-01T13:11:57;4.40;90.50
42965;DHT22;28604;51.204;22.552;2023-02-01T13:14:35;4.30;90.50
42965;DHT22;28604;51.204;22.552;2023-02-01T13:17:09;4.40;90.50
42965;DHT22;28604;51.204;22.552;2023-02-01T13:22:31;4.40;91.00
42965;DHT22;28604;51.204;22.552;2023-02-01T13:25:10;4.20;91.40
42965;DHT22;28604;51.204;22.552;2023-02-01T13:27:37;4.10;91.40
42965;DHT22;28604;51.204;22.552;2023-02-01T13:30:26;4.00;91.60
42965;DHT22;28604;51.204;22.552;2023-02-01T13:33:18;4.00;91.60
42965;DHT22;28604;51.204;22.552;2023-02-01T13:36:09;3.90;91.60
42965;DHT22;28604;51.204;22.552;2023-02-01T13:41:32;4.00;91.70
42965;DHT22;28604;51.204;22.552;2023-02-01T13:44:10;3.90;91.80
42965;DHT22;28604;51.204;22.552;2023-02-01T13:46:43;3.90;91.70
42965;DHT22;28604;51.204;22.552;2023-02-01T13:49:22;3.90;91.70
42965;DHT22;28604;51.204;22.552;2023-02-01T13:51:55;3.90;91.90
42965;DHT22;28604;51.204;22.552;2023-02-01T13:54:29;3.80;92.00
42965;DHT22;28604;51.204;22.552;2023-02-01T13:56:56;3.90;92.00
42965;DHT22;28604;51.204;22.552;2023-02-01T14:02:45;3.90;91.80
42965;DHT22;28604;51.204;22.552;2023-02-01T14:10:54;3.90;91.80
42965;DHT22;28604;51.204;22.552;2023-02-01T14:13:37;3.90;91.80
42965;DHT22;28604;51.204;22.552;2023-02-01T14:23:56;3.90;91.80
42965;DHT22;28604;51.204;22.552;2023-02-01T14:31:50;3.90;91.60
42965;DHT22;28604;51.204;22.552;2023-02-01T14:34:24;3.80;91.70
42965;DHT22;28604;51.204;22.552;2023-02-01T14:36:58;3.90;91.70
42965;DHT22;28604;51.204;22.552;2023-02-01T14:42:28;3.80;91.70
42965;DHT22;28604;51.204;22.552;2023-02-01T14:55:51;3.90;91.40
42965;DHT22;28604;51.204;22.552;2023-02-01T14:58:45;3.90;91.40
42965;DHT22;28604;51.204;22.552;2023-02-01T15:01:33;3.90;91.30
42965;DHT22;28604;51.204;22.552;2023-02-01T15:04:15;3.90;91.30
42965;DHT22;28604;51.204;22.552;2023-02-01T15:06:58;3.80;91.30
42965;DHT22;28604;51.204;22.552;2023-02-01T15:14:38;3.80;91.00
42965;DHT22;28604;51.204;22.552;2023-02-01T15:19:57;3.80;91.50
42965;DHT22;28604;51.204;22.552;2023-02-01T15:22:25;3.70;91.40
42965;DHT22;28604;51.204;22.552;2023-02-01T15:24:56;3.70;91.60
42965;DHT22;28604;51.204;22.552;2023-02-01T15:27:23;3.70;91.90
42965;DHT22;28604;51.204;22.552;2023-02-01T15:29:50;3.70;91.90
42965;DHT22;28604;51.204;22.552;2023-02-01T15:34:57;3.70;91.70
42965;DHT22;28604;51.204;22.552;2023-02-01T15:37:23;3.70;91.90
42965;DHT22;28604;51.204;22.552;2023-02-01T15:40:19;3.80;91.70
42965;DHT22;28604;51.204;22.552;2023-02-01T15:45:18;3.70;92.00
42965;DHT22;28604;51.204;22.552;2023-02-01T15:47:48;3.70;92.50
42965;DHT22;28604;51.204;22.552;2023-02-01T15:50:21;3.70;92.20
42965;DHT22;28604;51.204;22.552;2023-02-01T15:52:50;3.60;92.30
42965;DHT22;28604;51.204;22.552;2023-02-01T15:55:22;3.60;92.10
42965;DHT22;28604;51.204;22.552;2023-02-01T15:57:50;3.60;92.20
42965;DHT22;28604;51.204;22.552;2023-02-01T16:00:42;3.60;92.10
42965;DHT22;28604;51.204;22.552;2023-02-01T16:05:59;3.50;92.30
42965;DHT22;28604;51.204;22.552;2023-02-01T16:08:27;3.50;92.20
42965;DHT22;28604;51.204;22.552;2023-02-01T16:11:00;3.50;92.40
42965;DHT22;28604;51.204;22.552;2023-02-01T16:13:27;3.50;92.40
42965;DHT22;28604;51.204;22.552;2023-02-01T16:15:53;3.50;92.20
42965;DHT22;28604;51.204;22.552;2023-02-01T16:18:19;3.40;92.30
42965;DHT22;28604;51.204;22.552;2023-02-01T16:20:47;3.40;92.70
42965;DHT22;28604;51.204;22.552;2023-02-01T16:23:13;3.50;92.10
42965;DHT22;28604;51.204;22.552;2023-02-01T16:25:40;3.40;92.40
42965;DHT22;28604;51.204;22.552;2023-02-01T16:28:06;3.40;92.50
42965;DHT22;28604;51.204;22.552;2023-02-01T16:30:33;3.30;92.60
42965;DHT22;28604;51.204;22.552;2023-02-01T16:33:00;3.30;92.60
42965;DHT22;28604;51.204;22.552;2023-02-01T16:35:37;3.30;92.70
42965;DHT22;28604;51.204;22.552;2023-02-01T16:38:15;3.30;92.80
42965;DHT22;28604;51.204;22.552;2023-02-01T16:40:44;3.30;92.80
42965;DHT22;28604;51.204;22.552;2023-02-01T16:43:22;3.20;92.70
42965;DHT22;28604;51.204;22.552;2023-02-01T16:45:51;3.30;92.90
42965;DHT22;28604;51.204;22.552;2023-02-01T16:50:54;3.20;93.20
42965;DHT22;28604;51.204;22.552;2023-02-01T16:53:21;3.20;93.30
42965;DHT22;28604;51.204;22.552;2023-02-01T16:55:47;3.20;93.20
42965;DHT22;28604;51.204;22.552;2023-02-01T16:58:23;3.20;93.20
42965;DHT22;28604;51.204;22.552;2023-02-01T17:00:49;3.20;93.20
42965;DHT22;28604;51.204;22.552;2023-02-01T17:03:16;3.20;93.60
42965;DHT22;28604;51.204;22.552;2023-02-01T17:05:54;3.20;93.40
42965;DHT22;28604;51.204;22.552;2023-02-01T17:08:30;3.20;93.50
42965;DHT22;28604;51.204;22.552;2023-02-01T17:10:56;3.30;93.30
42965;DHT22;28604;51.204;22.552;2023-02-01T17:13:22;3.30;93.20
42965;DHT22;28604;51.204;22.552;2023-02-01T17:15:58;3.20;93.30
42965;DHT22;28604;51.204;22.552;2023-02-01T17:18:27;3.20;93.40
42965;DHT22;28604;51.204;22.552;2023-02-01T17:21:00;3.20;93.60
42965;DHT22;28604;51.204;22.552;2023-02-01T17:23:28;3.20;93.50
42965;DHT22;28604;51.204;22.552;2023-02-01T17:25:54;3.20;93.70
42965;DHT22;28604;51.204;22.552;2023-02-01T17:28:20;3.10;93.80
42965;DHT22;28604;51.204;22.552;2023-02-01T17:30:47;3.10;93.80
42965;DHT22;28604;51.204;22.552;2023-02-01T17:33:25;3.10;93.50
42965;DHT22;28604;51.204;22.552;2023-02-01T17:35:53;3.10;93.60
42965;DHT22;28604;51.204;22.552;2023-02-01T17:38:20;3.10;93.40
42965;DHT22;28604;51.204;22.552;2023-02-01T17:40:46;3.10;93.50
42965;DHT22;28604;51.204;22.552;2023-02-01T17:43:14;3.00;93.50
42965;DHT22;28604;51.204;22.552;2023-02-01T17:45:53;3.10;93.50
42965;DHT22;28604;51.204;22.552;2023-02-01T17:48:21;3.00;93.90
42965;DHT22;28604;51.204;22.552;2023-02-01T17:50:49;2.90;93.80
42965;DHT22;28604;51.204;22.552;2023-02-01T17:53:17;2.90;93.90
42965;DHT22;28604;51.204;22.552;2023-02-01T17:55:45;2.90;93.80
42965;DHT22;28604;51.204;22.552;2023-02-01T17:58:13;3.00;93.70
42965;DHT22;28604;51.204;22.552;2023-02-01T18:00:40;2.90;93.90
42965;DHT22;28604;51.204;22.552;2023-02-01T18:14:44;3.00;93.90
42965;DHT22;28604;51.204;22.552;2023-02-01T18:17:13;2.90;93.90
42965;DHT22;28604;51.204;22.552;2023-02-01T18:19:39;2.90;94.00
42965;DHT22;28604;51.204;22.552;2023-02-01T18:22:08;2.80;94.00
42965;DHT22;28604;51.204;22.552;2023-02-01T18:24:37;2.80;94.10
42965;DHT22;28604;51.204;22.552;2023-02-01T18:27:03;2.80;94.00
42965;DHT22;28604;51.204;22.552;2023-02-01T18:29:29;2.80;93.50
42965;DHT22;28604;51.204;22.552;2023-02-01T18:31:55;2.80;93.40